sensor_id;sensor_type;location;lat;lon;timestamp;P1;durP1;ratioP1;P2;durP2;ratioP2
54555;SDS011;57291;37.520;15.106;2023-05-17T00:02:00;24.42;;;8.50;;
54555;SDS011;57291;37.520;15.106;2023-05-17T00:04:27;28.98;;;8.30;;
54555;SDS011;57291;37.520;15.106;2023-05-17T00:06:55;28.27;;;8.57;;
54555;SDS011;57291;37.520;15.106;2023-05-17T00:09:23;23.30;;;8.00;;
54555;SDS011;57291;37.520;15.106;2023-05-17T00:11:50;24.88;;;8.32;;
54555;SDS011;57291;37.520;15.106;2023-05-17T00:14:17;29.20;;;8.73;;
54555;SDS011;57291;37.520;15.106;2023-05-17T00:16:44;28.27;;;8.65;;
54555;SDS011;57291;37.520;15.106;2023-05-17T00:19:12;26.33;;;8.93;;
54555;SDS011;57291;37.520;15.106;2023-05-17T00:21:40;26.45;;;9.48;;
54555;SDS011;57291;37.520;15.106;2023-05-17T00:24:07;23.05;;;7.65;;
54555;SDS011;57291;37.520;15.106;2023-05-17T00:26:35;20.10;;;7.22;;
54555;SDS011;57291;37.520;15.106;2023-05-17T00:29:02;19.45;;;6.85;;
54555;SDS011;57291;37.520;15.106;2023-05-17T00:31:29;22.42;;;7.22;;
54555;SDS011;57291;37.520;15.106;2023-05-17T00:33:56;28.00;;;8.10;;
54555;SDS011;57291;37.520;15.106;2023-05-17T00:36:23;29.85;;;8.02;;
54555;SDS011;57291;37.520;15.106;2023-05-17T00:38:51;25.55;;;8.13;;
54555;SDS011;57291;37.520;15.106;2023-05-17T00:41:18;24.55;;;7.03;;
54555;SDS011;57291;37.520;15.106;2023-05-17T00:43:45;22.08;;;7.00;;
54555;SDS011;57291;37.520;15.106;2023-05-17T00:46:12;18.52;;;6.88;;
54555;SDS011;57291;37.520;15.106;2023-05-17T00:48:40;20.13;;;6.78;;
54555;SDS011;57291;37.520;15.106;2023-05-17T00:51:09;25.13;;;8.25;;
54555;SDS011;57291;37.520;15.106;2023-05-17T00:53:37;25.17;;;7.10;;
54555;SDS011;57291;37.520;15.106;2023-05-17T00:56:05;27.52;;;8.43;;
54555;SDS011;57291;37.520;15.106;2023-05-17T00:58:32;22.92;;;7.10;;
54555;SDS011;57291;37.520;15.106;2023-05-17T01:00:59;20.80;;;7.15;;
54555;SDS011;57291;37.520;15.106;2023-05-17T01:03:27;27.77;;;7.85;;
54555;SDS011;57291;37.520;15.106;2023-05-17T01:05:55;23.35;;;6.68;;
54555;SDS011;57291;37.520;15.106;2023-05-17T01:08:22;29.58;;;7.47;;
54555;SDS011;57291;37.520;15.106;2023-05-17T01:10:56;27.27;;;6.97;;
54555;SDS011;57291;37.520;15.106;2023-05-17T01:13:34;29.40;;;8.57;;
54555;SDS011;57291;37.520;15.106;2023-05-17T01:16:17;22.80;;;7.10;;
54555;SDS011;57291;37.520;15.106;2023-05-17T01:19:14;28.95;;;7.25;;
54555;SDS011;57291;37.520;15.106;2023-05-17T01:27:40;25.02;;;6.75;;
54555;SDS011;57291;37.520;15.106;2023-05-17T01:30:11;28.92;;;7.28;;
54555;SDS011;57291;37.520;15.106;2023-05-17T01:32:41;19.90;;;7.25;;
54555;SDS011;57291;37.520;15.106;2023-05-17T01:35:09;25.88;;;7.20;;
54555;SDS011;57291;37.520;15.106;2023-05-17T01:37:40;24.40;;;7.22;;
54555;SDS011;57291;37.520;15.106;2023-05-17T01:40:07;21.85;;;7.00;;
54555;SDS011;57291;37.520;15.106;2023-05-17T01:42:36;22.92;;;7.10;;
54555;SDS011;57291;37.520;15.106;2023-05-17T01:45:13;25.10;;;6.28;;
54555;SDS011;57291;37.520;15.106;2023-05-17T01:50:39;22.80;;;6.68;;
54555;SDS011;57291;37.520;15.106;2023-05-17T01:53:09;21.75;;;6.65;;
54555;SDS011;57291;37.520;15.106;2023-05-17T01:55:51;25.38;;;6.75;;
54555;SDS011;57291;37.520;15.106;2023-05-17T01:58:24;24.38;;;6.82;;
54555;SDS011;57291;37.520;15.106;2023-05-17T02:00:53;25.67;;;6.57;;
54555;SDS011;57291;37.520;15.106;2023-05-17T02:03:22;24.65;;;6.57;;
54555;SDS011;57291;37.520;15.106;2023-05-17T02:05:51;28.58;;;6.88;;
54555;SDS011;57291;37.520;15.106;2023-05-17T02:08:18;22.85;;;6.97;;
54555;SDS011;57291;37.520;15.106;2023-05-17T02:10:45;29.45;;;7.28;;
54555;SDS011;57291;37.520;15.106;2023-05-17T02:13:12;19.60;;;6.00;;
54555;SDS011;57291;37.520;15.106;2023-05-17T02:15:40;24.70;;;6.63;;
54555;SDS011;57291;37.520;15.106;2023-05-17T02:18:07;18.73;;;6.05;;
54555;SDS011;57291;37.520;15.106;2023-05-17T02:20:34;19.65;;;5.72;;
54555;SDS011;57291;37.520;15.106;2023-05-17T02:23:01;22.95;;;6.75;;
54555;SDS011;57291;37.520;15.106;2023-05-17T02:25:28;23.95;;;6.35;;
54555;SDS011;57291;37.520;15.106;2023-05-17T02:27:57;21.40;;;6.68;;
54555;SDS011;57291;37.520;15.106;2023-05-17T02:30:26;27.77;;;6.05;;
54555;SDS011;57291;37.520;15.106;2023-05-17T02:32:53;24.65;;;6.85;;
54555;SDS011;57291;37.520;15.106;2023-05-17T02:35:22;23.38;;;6.82;;
54555;SDS011;57291;37.520;15.106;2023-05-17T02:37:49;25.45;;;6.70;;
54555;SDS011;57291;37.520;15.106;2023-05-17T02:40:18;25.42;;;6.38;;
54555;SDS011;57291;37.520;15.106;2023-05-17T02:42:45;26.70;;;6.80;;
54555;SDS011;57291;37.520;15.106;2023-05-17T02:45:12;21.73;;;6.35;;
54555;SDS011;57291;37.520;15.106;2023-05-17T02:47:39;26.02;;;6.80;;
54555;SDS011;57291;37.520;15.106;2023-05-17T02:50:07;18.40;;;6.32;;
54555;SDS011;57291;37.520;15.106;2023-05-17T02:52:35;21.40;;;7.03;;
54555;SDS011;57291;37.520;15.106;2023-05-17T02:55:04;28.02;;;7.60;;
54555;SDS011;57291;37.520;15.106;2023-05-17T02:57:31;25.30;;;7.60;;
54555;SDS011;57291;37.520;15.106;2023-05-17T02:59:58;22.83;;;7.35;;
54555;SDS011;57291;37.520;15.106;2023-05-17T03:02:27;23.27;;;7.10;;
54555;SDS011;57291;37.520;15.106;2023-05-17T03:04:54;24.15;;;7.50;;
54555;SDS011;57291;37.520;15.106;2023-05-17T03:07:21;20.67;;;6.13;;
54555;SDS011;57291;37.520;15.106;2023-05-17T03:09:48;23.83;;;6.78;;
54555;SDS011;57291;37.520;15.106;2023-05-17T03:12:16;24.23;;;6.65;;
54555;SDS011;57291;37.520;15.106;2023-05-17T03:14:43;26.38;;;6.72;;
54555;SDS011;57291;37.520;15.106;2023-05-17T03:17:10;20.77;;;6.40;;
54555;SDS011;57291;37.520;15.106;2023-05-17T03:19:39;22.13;;;7.57;;
54555;SDS011;57291;37.520;15.106;2023-05-17T03:22:06;25.30;;;6.75;;
54555;SDS011;57291;37.520;15.106;2023-05-17T03:24:34;24.23;;;5.88;;
54555;SDS011;57291;37.520;15.106;2023-05-17T03:27:01;18.77;;;6.38;;
54555;SDS011;57291;37.520;15.106;2023-05-17T03:29:30;19.52;;;5.80;;
54555;SDS011;57291;37.520;15.106;2023-05-17T03:31:57;22.52;;;6.38;;
54555;SDS011;57291;37.520;15.106;2023-05-17T03:34:24;27.95;;;6.25;;
54555;SDS011;57291;37.520;15.106;2023-05-17T03:36:51;22.05;;;6.28;;
54555;SDS011;57291;37.520;15.106;2023-05-17T03:39:18;20.50;;;5.68;;
54555;SDS011;57291;37.520;15.106;2023-05-17T03:41:46;23.88;;;7.00;;
54555;SDS011;57291;37.520;15.106;2023-05-17T03:44:13;24.48;;;6.15;;
54555;SDS011;57291;37.520;15.106;2023-05-17T03:46:41;28.48;;;6.95;;
54555;SDS011;57291;37.520;15.106;2023-05-17T03:49:08;20.13;;;5.40;;
54555;SDS011;57291;37.520;15.106;2023-05-17T03:51:36;18.25;;;6.30;;
54555;SDS011;57291;37.520;15.106;2023-05-17T03:54:03;24.63;;;5.90;;
54555;SDS011;57291;37.520;15.106;2023-05-17T03:56:31;26.55;;;7.18;;
54555;SDS011;57291;37.520;15.106;2023-05-17T03:58:58;19.92;;;6.15;;
54555;SDS011;57291;37.520;15.106;2023-05-17T04:01:25;25.10;;;7.28;;
54555;SDS011;57291;37.520;15.106;2023-05-17T04:03:53;29.92;;;7.57;;
54555;SDS011;57291;37.520;15.106;2023-05-17T04:06:21;23.45;;;6.80;;
54555;SDS011;57291;37.520;15.106;2023-05-17T04:08:48;20.08;;;6.90;;
54555;SDS011;57291;37.520;15.106;2023-05-17T04:11:15;24.50;;;6.97;;
54555;SDS011;57291;37.520;15.106;2023-05-17T04:13:49;24.42;;;7.45;;
54555;SDS011;57291;37.520;15.106;2023-05-17T04:16:17;27.80;;;7.85;;
54555;SDS011;57291;37.520;15.106;2023-05-17T04:18:45;23.95;;;7.82;;
54555;SDS011;57291;37.520;15.106;2023-05-17T04:21:13;29.83;;;7.43;;
54555;SDS011;57291;37.520;15.106;2023-05-17T04:23:40;20.55;;;6.78;;
54555;SDS011;57291;37.520;15.106;2023-05-17T04:26:08;31.95;;;8.13;;
54555;SDS011;57291;37.520;15.106;2023-05-17T04:28:37;21.45;;;7.45;;
54555;SDS011;57291;37.520;15.106;2023-05-17T04:31:06;26.92;;;7.32;;
54555;SDS011;57291;37.520;15.106;2023-05-17T04:33:36;27.95;;;8.07;;
54555;SDS011;57291;37.520;15.106;2023-05-17T04:36:06;23.13;;;7.45;;
54555;SDS011;57291;37.520;15.106;2023-05-17T04:38:34;23.95;;;7.38;;
54555;SDS011;57291;37.520;15.106;2023-05-17T04:41:04;21.85;;;8.35;;
54555;SDS011;57291;37.520;15.106;2023-05-17T04:43:34;25.80;;;7.93;;
54555;SDS011;57291;37.520;15.106;2023-05-17T04:46:06;23.67;;;7.07;;
54555;SDS011;57291;37.520;15.106;2023-05-17T04:48:34;23.48;;;7.38;;
54555;SDS011;57291;37.520;15.106;2023-05-17T04:51:02;27.42;;;7.72;;
54555;SDS011;57291;37.520;15.106;2023-05-17T04:53:34;24.43;;;10.40;;
54555;SDS011;57291;37.520;15.106;2023-05-17T04:58:34;28.15;;;8.68;;
54555;SDS011;57291;37.520;15.106;2023-05-17T05:01:02;24.17;;;7.78;;
54555;SDS011;57291;37.520;15.106;2023-05-17T05:03:30;18.55;;;6.88;;
54555;SDS011;57291;37.520;15.106;2023-05-17T05:05:58;25.88;;;6.53;;
54555;SDS011;57291;37.520;15.106;2023-05-17T05:08:26;20.67;;;6.88;;
54555;SDS011;57291;37.520;15.106;2023-05-17T05:10:55;18.35;;;6.00;;
54555;SDS011;57291;37.520;15.106;2023-05-17T05:13:23;20.45;;;6.03;;
54555;SDS011;57291;37.520;15.106;2023-05-17T05:15:52;22.70;;;5.72;;
54555;SDS011;57291;37.520;15.106;2023-05-17T05:18:19;20.60;;;6.45;;
54555;SDS011;57291;37.520;15.106;2023-05-17T05:20:47;21.38;;;6.20;;
54555;SDS011;57291;37.520;15.106;2023-05-17T05:23:16;17.52;;;5.68;;
54555;SDS011;57291;37.520;15.106;2023-05-17T05:25:46;22.77;;;5.50;;
54555;SDS011;57291;37.520;15.106;2023-05-17T05:28:14;24.40;;;5.72;;
54555;SDS011;57291;37.520;15.106;2023-05-17T05:30:41;17.58;;;5.57;;
54555;SDS011;57291;37.520;15.106;2023-05-17T05:33:10;14.85;;;5.25;;
54555;SDS011;57291;37.520;15.106;2023-05-17T05:35:37;22.23;;;5.68;;
54555;SDS011;57291;37.520;15.106;2023-05-17T05:38:05;13.63;;;4.63;;
54555;SDS011;57291;37.520;15.106;2023-05-17T05:40:34;16.88;;;5.28;;
54555;SDS011;57291;37.520;15.106;2023-05-17T05:43:02;16.67;;;4.57;;
54555;SDS011;57291;37.520;15.106;2023-05-17T05:45:30;20.42;;;4.95;;
54555;SDS011;57291;37.520;15.106;2023-05-17T05:48:00;16.48;;;4.93;;
54555;SDS011;57291;37.520;15.106;2023-05-17T05:50:28;19.58;;;4.85;;
54555;SDS011;57291;37.520;15.106;2023-05-17T05:53:03;18.35;;;5.25;;
54555;SDS011;57291;37.520;15.106;2023-05-17T05:55:49;18.88;;;5.43;;
54555;SDS011;57291;37.520;15.106;2023-05-17T05:58:17;19.95;;;5.22;;
54555;SDS011;57291;37.520;15.106;2023-05-17T06:00:44;15.43;;;4.82;;
54555;SDS011;57291;37.520;15.106;2023-05-17T06:03:12;20.65;;;4.57;;
54555;SDS011;57291;37.520;15.106;2023-05-17T06:05:39;19.42;;;4.47;;
54555;SDS011;57291;37.520;15.106;2023-05-17T06:08:07;15.68;;;4.40;;
54555;SDS011;57291;37.520;15.106;2023-05-17T06:10:34;19.00;;;6.18;;
54555;SDS011;57291;37.520;15.106;2023-05-17T06:13:01;26.30;;;6.05;;
54555;SDS011;57291;37.520;15.106;2023-05-17T06:15:29;17.42;;;5.53;;
54555;SDS011;57291;37.520;15.106;2023-05-17T06:17:57;14.60;;;4.72;;
54555;SDS011;57291;37.520;15.106;2023-05-17T06:20:24;18.70;;;4.97;;
54555;SDS011;57291;37.520;15.106;2023-05-17T06:22:52;19.20;;;4.93;;
54555;SDS011;57291;37.520;15.106;2023-05-17T06:25:19;14.63;;;4.70;;
54555;SDS011;57291;37.520;15.106;2023-05-17T06:27:46;13.48;;;5.13;;
54555;SDS011;57291;37.520;15.106;2023-05-17T06:30:13;17.38;;;4.90;;
54555;SDS011;57291;37.520;15.106;2023-05-17T06:32:40;18.35;;;4.43;;
54555;SDS011;57291;37.520;15.106;2023-05-17T06:35:08;17.50;;;4.70;;
54555;SDS011;57291;37.520;15.106;2023-05-17T06:37:36;20.45;;;5.07;;
54555;SDS011;57291;37.520;15.106;2023-05-17T06:40:03;18.15;;;4.95;;
54555;SDS011;57291;37.520;15.106;2023-05-17T06:42:41;18.77;;;5.28;;
54555;SDS011;57291;37.520;15.106;2023-05-17T06:45:08;15.63;;;6.35;;
54555;SDS011;57291;37.520;15.106;2023-05-17T06:47:36;15.57;;;6.28;;
54555;SDS011;57291;37.520;15.106;2023-05-17T06:50:04;19.00;;;4.90;;
54555;SDS011;57291;37.520;15.106;2023-05-17T06:52:32;13.90;;;4.90;;
54555;SDS011;57291;37.520;15.106;2023-05-17T06:54:59;18.23;;;4.47;;
54555;SDS011;57291;37.520;15.106;2023-05-17T06:57:26;17.58;;;4.97;;
54555;SDS011;57291;37.520;15.106;2023-05-17T06:59:54;15.18;;;4.03;;
54555;SDS011;57291;37.520;15.106;2023-05-17T07:02:21;14.70;;;4.88;;
54555;SDS011;57291;37.520;15.106;2023-05-17T07:04:48;15.43;;;4.13;;
54555;SDS011;57291;37.520;15.106;2023-05-17T07:07:15;15.18;;;4.32;;
54555;SDS011;57291;37.520;15.106;2023-05-17T07:09:42;14.10;;;4.50;;
54555;SDS011;57291;37.520;15.106;2023-05-17T07:12:09;16.70;;;4.82;;
54555;SDS011;57291;37.520;15.106;2023-05-17T07:14:37;13.27;;;4.32;;
54555;SDS011;57291;37.520;15.106;2023-05-17T07:17:04;16.42;;;4.60;;
54555;SDS011;57291;37.520;15.106;2023-05-17T07:19:31;17.98;;;4.50;;
54555;SDS011;57291;37.520;15.106;2023-05-17T07:21:58;12.77;;;4.38;;
54555;SDS011;57291;37.520;15.106;2023-05-17T07:24:25;16.50;;;4.75;;
54555;SDS011;57291;37.520;15.106;2023-05-17T07:26:53;16.83;;;4.45;;
54555;SDS011;57291;37.520;15.106;2023-05-17T07:29:20;16.67;;;4.22;;
54555;SDS011;57291;37.520;15.106;2023-05-17T07:31:47;12.00;;;4.05;;
54555;SDS011;57291;37.520;15.106;2023-05-17T07:34:14;13.75;;;3.83;;
54555;SDS011;57291;37.520;15.106;2023-05-17T07:36:41;11.27;;;3.53;;
54555;SDS011;57291;37.520;15.106;2023-05-17T07:39:08;15.85;;;4.30;;
54555;SDS011;57291;37.520;15.106;2023-05-17T07:41:36;12.82;;;3.75;;
54555;SDS011;57291;37.520;15.106;2023-05-17T07:44:03;13.55;;;3.50;;
54555;SDS011;57291;37.520;15.106;2023-05-17T07:46:30;14.02;;;4.28;;
54555;SDS011;57291;37.520;15.106;2023-05-17T07:48:57;11.80;;;3.65;;
54555;SDS011;57291;37.520;15.106;2023-05-17T07:51:24;11.75;;;3.55;;
54555;SDS011;57291;37.520;15.106;2023-05-17T07:53:52;10.75;;;3.40;;
54555;SDS011;57291;37.520;15.106;2023-05-17T07:56:19;11.45;;;3.70;;
54555;SDS011;57291;37.520;15.106;2023-05-17T07:58:46;11.40;;;3.45;;
54555;SDS011;57291;37.520;15.106;2023-05-17T08:01:14;13.75;;;4.10;;
54555;SDS011;57291;37.520;15.106;2023-05-17T08:03:41;10.18;;;3.95;;
54555;SDS011;57291;37.520;15.106;2023-05-17T08:06:17;16.13;;;3.78;;
54555;SDS011;57291;37.520;15.106;2023-05-17T08:08:44;15.52;;;4.20;;
54555;SDS011;57291;37.520;15.106;2023-05-17T08:11:12;15.18;;;3.88;;
54555;SDS011;57291;37.520;15.106;2023-05-17T08:13:39;16.65;;;4.45;;
54555;SDS011;57291;37.520;15.106;2023-05-17T08:16:07;15.93;;;3.80;;
54555;SDS011;57291;37.520;15.106;2023-05-17T08:18:42;12.05;;;3.90;;
54555;SDS011;57291;37.520;15.106;2023-05-17T08:21:10;14.05;;;3.75;;
54555;SDS011;57291;37.520;15.106;2023-05-17T08:23:38;17.30;;;3.97;;
54555;SDS011;57291;37.520;15.106;2023-05-17T08:26:06;14.52;;;3.97;;
54555;SDS011;57291;37.520;15.106;2023-05-17T08:28:33;13.10;;;3.67;;
54555;SDS011;57291;37.520;15.106;2023-05-17T08:31:00;13.35;;;3.92;;
54555;SDS011;57291;37.520;15.106;2023-05-17T08:33:27;15.10;;;3.72;;
54555;SDS011;57291;37.520;15.106;2023-05-17T08:35:55;10.93;;;3.83;;
54555;SDS011;57291;37.520;15.106;2023-05-17T08:38:23;11.13;;;3.53;;
54555;SDS011;57291;37.520;15.106;2023-05-17T08:40:53;8.57;;;3.13;;
54555;SDS011;57291;37.520;15.106;2023-05-17T08:43:25;7.50;;;2.97;;
54555;SDS011;57291;37.520;15.106;2023-05-17T08:45:53;13.45;;;3.60;;
54555;SDS011;57291;37.520;15.106;2023-05-17T08:48:27;11.93;;;3.25;;
54555;SDS011;57291;37.520;15.106;2023-05-17T08:50:57;12.50;;;3.00;;
54555;SDS011;57291;37.520;15.106;2023-05-17T08:53:25;9.05;;;3.03;;
54555;SDS011;57291;37.520;15.106;2023-05-17T08:55:56;9.32;;;3.38;;
54555;SDS011;57291;37.520;15.106;2023-05-17T08:58:26;11.68;;;3.60;;
54555;SDS011;57291;37.520;15.106;2023-05-17T09:01:06;8.25;;;3.22;;
54555;SDS011;57291;37.520;15.106;2023-05-17T09:03:35;11.52;;;3.17;;
54555;SDS011;57291;37.520;15.106;2023-05-17T09:06:07;14.45;;;3.53;;
54555;SDS011;57291;37.520;15.106;2023-05-17T09:08:36;12.15;;;3.45;;
54555;SDS011;57291;37.520;15.106;2023-05-17T09:11:04;12.07;;;3.28;;
54555;SDS011;57291;37.520;15.106;2023-05-17T09:13:31;14.30;;;3.28;;
54555;SDS011;57291;37.520;15.106;2023-05-17T09:15:58;12.80;;;3.20;;
54555;SDS011;57291;37.520;15.106;2023-05-17T09:18:29;9.57;;;3.03;;
54555;SDS011;57291;37.520;15.106;2023-05-17T09:21:02;10.85;;;3.42;;
54555;SDS011;57291;37.520;15.106;2023-05-17T09:23:36;13.82;;;3.70;;
54555;SDS011;57291;37.520;15.106;2023-05-17T09:26:05;9.93;;;3.72;;
54555;SDS011;57291;37.520;15.106;2023-05-17T09:28:39;9.27;;;3.10;;
54555;SDS011;57291;37.520;15.106;2023-05-17T09:31:08;12.45;;;3.55;;
54555;SDS011;57291;37.520;15.106;2023-05-17T09:33:45;11.63;;;3.42;;
54555;SDS011;57291;37.520;15.106;2023-05-17T09:36:18;12.27;;;3.50;;
54555;SDS011;57291;37.520;15.106;2023-05-17T09:38:55;12.18;;;3.60;;
54555;SDS011;57291;37.520;15.106;2023-05-17T09:41:25;11.43;;;3.25;;
54555;SDS011;57291;37.520;15.106;2023-05-17T09:43:55;12.00;;;3.22;;
54555;SDS011;57291;37.520;15.106;2023-05-17T09:46:24;11.88;;;3.00;;
54555;SDS011;57291;37.520;15.106;2023-05-17T09:48:54;11.38;;;3.17;;
54555;SDS011;57291;37.520;15.106;2023-05-17T09:53:59;12.95;;;3.22;;
54555;SDS011;57291;37.520;15.106;2023-05-17T09:56:27;10.73;;;3.15;;
54555;SDS011;57291;37.520;15.106;2023-05-17T09:58:55;10.27;;;3.58;;
54555;SDS011;57291;37.520;15.106;2023-05-17T10:01:25;15.10;;;3.50;;
54555;SDS011;57291;37.520;15.106;2023-05-17T10:03:53;13.20;;;3.72;;
54555;SDS011;57291;37.520;15.106;2023-05-17T10:06:24;11.23;;;3.13;;
54555;SDS011;57291;37.520;15.106;2023-05-17T10:08:58;10.95;;;2.60;;
54555;SDS011;57291;37.520;15.106;2023-05-17T10:11:29;11.82;;;2.97;;
54555;SDS011;57291;37.520;15.106;2023-05-17T10:14:16;14.15;;;3.10;;
54555;SDS011;57291;37.520;15.106;2023-05-17T10:16:49;11.73;;;3.00;;
54555;SDS011;57291;37.520;15.106;2023-05-17T10:19:18;11.38;;;3.60;;
54555;SDS011;57291;37.520;15.106;2023-05-17T10:21:47;10.73;;;3.00;;
54555;SDS011;57291;37.520;15.106;2023-05-17T10:24:16;6.68;;;2.70;;
54555;SDS011;57291;37.520;15.106;2023-05-17T10:26:50;15.13;;;3.35;;
54555;SDS011;57291;37.520;15.106;2023-05-17T10:29:18;14.02;;;3.60;;
54555;SDS011;57291;37.520;15.106;2023-05-17T10:31:49;11.57;;;3.50;;
54555;SDS011;57291;37.520;15.106;2023-05-17T10:34:19;7.45;;;3.08;;
54555;SDS011;57291;37.520;15.106;2023-05-17T10:36:48;11.68;;;3.20;;
54555;SDS011;57291;37.520;15.106;2023-05-17T10:39:15;9.43;;;3.30;;
54555;SDS011;57291;37.520;15.106;2023-05-17T10:41:45;9.85;;;2.92;;
54555;SDS011;57291;37.520;15.106;2023-05-17T10:44:17;11.23;;;2.85;;
54555;SDS011;57291;37.520;15.106;2023-05-17T10:46:54;7.03;;;2.70;;
54555;SDS011;57291;37.520;15.106;2023-05-17T10:49:24;10.43;;;2.72;;
54555;SDS011;57291;37.520;15.106;2023-05-17T10:51:55;13.77;;;3.47;;
54555;SDS011;57291;37.520;15.106;2023-05-17T10:54:33;9.73;;;2.70;;
54555;SDS011;57291;37.520;15.106;2023-05-17T10:57:05;10.95;;;3.03;;
54555;SDS011;57291;37.520;15.106;2023-05-17T10:59:34;11.02;;;2.83;;
54555;SDS011;57291;37.520;15.106;2023-05-17T11:02:05;9.98;;;3.00;;
54555;SDS011;57291;37.520;15.106;2023-05-17T11:09:54;9.27;;;3.05;;
54555;SDS011;57291;37.520;15.106;2023-05-17T11:12:57;12.93;;;3.78;;
54555;SDS011;57291;37.520;15.106;2023-05-17T11:15:24;9.80;;;2.92;;
54555;SDS011;57291;37.520;15.106;2023-05-17T11:17:52;8.23;;;2.70;;
54555;SDS011;57291;37.520;15.106;2023-05-17T11:22:56;11.13;;;2.83;;
54555;SDS011;57291;37.520;15.106;2023-05-17T11:25:27;8.85;;;2.85;;
54555;SDS011;57291;37.520;15.106;2023-05-17T11:27:57;10.52;;;2.83;;
54555;SDS011;57291;37.520;15.106;2023-05-17T11:30:29;8.30;;;2.78;;
54555;SDS011;57291;37.520;15.106;2023-05-17T11:32:58;11.02;;;2.58;;
54555;SDS011;57291;37.520;15.106;2023-05-17T11:35:37;9.02;;;2.70;;
54555;SDS011;57291;37.520;15.106;2023-05-17T11:40:44;8.82;;;2.58;;
54555;SDS011;57291;37.520;15.106;2023-05-17T11:45:50;9.52;;;2.70;;
54555;SDS011;57291;37.520;15.106;2023-05-17T11:48:20;10.55;;;2.78;;
54555;SDS011;57291;37.520;15.106;2023-05-17T11:50:50;9.25;;;2.55;;
54555;SDS011;57291;37.520;15.106;2023-05-17T11:53:18;12.25;;;2.97;;
54555;SDS011;57291;37.520;15.106;2023-05-17T11:55:48;11.82;;;2.58;;
54555;SDS011;57291;37.520;15.106;2023-05-17T11:58:18;10.95;;;2.85;;
54555;SDS011;57291;37.520;15.106;2023-05-17T12:00:55;10.48;;;3.00;;
54555;SDS011;57291;37.520;15.106;2023-05-17T12:06:07;11.63;;;3.40;;
54555;SDS011;57291;37.520;15.106;2023-05-17T12:08:39;8.90;;;2.95;;
54555;SDS011;57291;37.520;15.106;2023-05-17T12:11:11;10.15;;;3.10;;
54555;SDS011;57291;37.520;15.106;2023-05-17T12:13:41;15.15;;;3.83;;
54555;SDS011;57291;37.520;15.106;2023-05-17T12:16:12;10.32;;;3.20;;
54555;SDS011;57291;37.520;15.106;2023-05-17T12:18:43;11.27;;;3.20;;
54555;SDS011;57291;37.520;15.106;2023-05-17T12:21:13;13.02;;;3.40;;
54555;SDS011;57291;37.520;15.106;2023-05-17T12:23:42;9.70;;;3.65;;
54555;SDS011;57291;37.520;15.106;2023-05-17T12:31:16;11.15;;;3.40;;
54555;SDS011;57291;37.520;15.106;2023-05-17T12:33:46;9.45;;;3.63;;
54555;SDS011;57291;37.520;15.106;2023-05-17T12:36:16;11.55;;;3.97;;
54555;SDS011;57291;37.520;15.106;2023-05-17T12:38:43;17.95;;;4.70;;
54555;SDS011;57291;37.520;15.106;2023-05-17T12:41:13;12.38;;;4.10;;
54555;SDS011;57291;37.520;15.106;2023-05-17T12:43:43;12.98;;;4.43;;
54555;SDS011;57291;37.520;15.106;2023-05-17T12:46:11;17.35;;;5.00;;
54555;SDS011;57291;37.520;15.106;2023-05-17T12:48:40;20.83;;;5.78;;
54555;SDS011;57291;37.520;15.106;2023-05-17T12:53:39;16.45;;;4.82;;
54555;SDS011;57291;37.520;15.106;2023-05-17T12:56:07;14.95;;;5.28;;
54555;SDS011;57291;37.520;15.106;2023-05-17T12:58:40;14.85;;;4.32;;
54555;SDS011;57291;37.520;15.106;2023-05-17T13:01:07;18.25;;;5.13;;
54555;SDS011;57291;37.520;15.106;2023-05-17T13:03:39;18.10;;;5.20;;
54555;SDS011;57291;37.520;15.106;2023-05-17T13:06:07;13.70;;;4.75;;
54555;SDS011;57291;37.520;15.106;2023-05-17T13:08:35;13.63;;;4.20;;
54555;SDS011;57291;37.520;15.106;2023-05-17T13:11:13;19.73;;;5.55;;
54555;SDS011;57291;37.520;15.106;2023-05-17T13:13:41;19.75;;;4.68;;
54555;SDS011;57291;37.520;15.106;2023-05-17T13:16:08;13.48;;;4.32;;
54555;SDS011;57291;37.520;15.106;2023-05-17T13:18:45;14.52;;;4.63;;
54555;SDS011;57291;37.520;15.106;2023-05-17T13:21:18;17.95;;;5.10;;
54555;SDS011;57291;37.520;15.106;2023-05-17T13:23:46;17.17;;;5.10;;
54555;SDS011;57291;37.520;15.106;2023-05-17T13:26:15;17.35;;;4.65;;
54555;SDS011;57291;37.520;15.106;2023-05-17T13:28:43;19.00;;;5.30;;
54555;SDS011;57291;37.520;15.106;2023-05-17T13:31:11;17.42;;;5.30;;
54555;SDS011;57291;37.520;15.106;2023-05-17T13:33:38;21.83;;;6.80;;
54555;SDS011;57291;37.520;15.106;2023-05-17T13:36:06;19.80;;;5.70;;
54555;SDS011;57291;37.520;15.106;2023-05-17T13:38:34;19.55;;;5.85;;
54555;SDS011;57291;37.520;15.106;2023-05-17T13:41:01;15.05;;;4.40;;
54555;SDS011;57291;37.520;15.106;2023-05-17T13:43:28;20.83;;;5.00;;
54555;SDS011;57291;37.520;15.106;2023-05-17T13:45:56;20.92;;;5.10;;
54555;SDS011;57291;37.520;15.106;2023-05-17T13:48:24;24.35;;;5.45;;
54555;SDS011;57291;37.520;15.106;2023-05-17T13:50:52;18.63;;;5.60;;
54555;SDS011;57291;37.520;15.106;2023-05-17T13:53:19;16.63;;;4.82;;
54555;SDS011;57291;37.520;15.106;2023-05-17T13:55:46;22.58;;;5.82;;
54555;SDS011;57291;37.520;15.106;2023-05-17T13:58:14;21.00;;;5.35;;
54555;SDS011;57291;37.520;15.106;2023-05-17T14:00:42;17.77;;;4.53;;
54555;SDS011;57291;37.520;15.106;2023-05-17T14:03:10;17.35;;;5.38;;
54555;SDS011;57291;37.520;15.106;2023-05-17T14:05:39;20.52;;;5.20;;
54555;SDS011;57291;37.520;15.106;2023-05-17T14:08:06;18.33;;;5.70;;
54555;SDS011;57291;37.520;15.106;2023-05-17T14:10:35;23.27;;;5.20;;
54555;SDS011;57291;37.520;15.106;2023-05-17T14:13:02;24.45;;;5.97;;
54555;SDS011;57291;37.520;15.106;2023-05-17T14:15:30;22.52;;;5.70;;
54555;SDS011;57291;37.520;15.106;2023-05-17T14:18:04;19.77;;;5.38;;
54555;SDS011;57291;37.520;15.106;2023-05-17T14:20:33;21.55;;;5.38;;
54555;SDS011;57291;37.520;15.106;2023-05-17T14:23:00;24.50;;;5.80;;
54555;SDS011;57291;37.520;15.106;2023-05-17T14:25:28;22.83;;;5.70;;
54555;SDS011;57291;37.520;15.106;2023-05-17T14:27:55;24.23;;;5.47;;
54555;SDS011;57291;37.520;15.106;2023-05-17T14:30:22;19.83;;;6.00;;
54555;SDS011;57291;37.520;15.106;2023-05-17T14:32:50;24.25;;;5.80;;
54555;SDS011;57291;37.520;15.106;2023-05-17T14:35:17;25.88;;;4.93;;
54555;SDS011;57291;37.520;15.106;2023-05-17T14:37:45;23.05;;;5.72;;
54555;SDS011;57291;37.520;15.106;2023-05-17T14:40:12;18.77;;;5.40;;
54555;SDS011;57291;37.520;15.106;2023-05-17T14:42:39;22.58;;;6.10;;
54555;SDS011;57291;37.520;15.106;2023-05-17T14:45:07;25.58;;;6.22;;
54555;SDS011;57291;37.520;15.106;2023-05-17T14:50:38;21.20;;;5.13;;
54555;SDS011;57291;37.520;15.106;2023-05-17T14:53:05;23.02;;;5.65;;
54555;SDS011;57291;37.520;15.106;2023-05-17T14:55:32;21.05;;;5.30;;
54555;SDS011;57291;37.520;15.106;2023-05-17T14:57:59;28.85;;;6.13;;
54555;SDS011;57291;37.520;15.106;2023-05-17T15:00:27;25.05;;;5.75;;
54555;SDS011;57291;37.520;15.106;2023-05-17T15:02:55;23.85;;;5.10;;
54555;SDS011;57291;37.520;15.106;2023-05-17T15:05:22;19.35;;;5.47;;
54555;SDS011;57291;37.520;15.106;2023-05-17T15:07:50;25.00;;;5.30;;
54555;SDS011;57291;37.520;15.106;2023-05-17T15:10:17;19.73;;;5.30;;
54555;SDS011;57291;37.520;15.106;2023-05-17T15:12:44;18.77;;;5.20;;
54555;SDS011;57291;37.520;15.106;2023-05-17T15:15:11;27.23;;;5.68;;